createdAt,value
2018-11-26T00:02:31.629Z,12.03
2018-11-26T00:07:36.195Z,11.90
2018-11-26T00:12:40.428Z,13.13
2018-11-26T00:17:45.209Z,12.23
2018-11-26T00:22:49.362Z,11.23
2018-11-26T00:27:53.433Z,12.57
2018-11-26T00:32:57.621Z,11.97
2018-11-26T00:38:02.031Z,12.40
2018-11-26T00:43:05.758Z,11.87
2018-11-26T00:48:09.814Z,11.43
2018-11-26T00:53:13.909Z,11.53
2018-11-26T00:58:18.034Z,11.73
2018-11-26T01:03:22.146Z,11.43
2018-11-26T01:08:26.274Z,11.37
2018-11-26T01:13:30.418Z,11.63
2018-11-26T01:18:34.321Z,11.83
2018-11-26T01:23:38.046Z,11.63
2018-11-26T01:28:42.110Z,12.00
2018-11-26T01:33:46.219Z,12.57
2018-11-26T01:38:50.380Z,11.40
2018-11-26T01:43:54.514Z,12.37
2018-11-26T01:48:58.654Z,12.37
2018-11-26T01:54:02.537Z,12.70
2018-11-26T01:59:06.589Z,12.23
2018-11-26T02:04:10.695Z,12.20
2018-11-26T02:09:14.817Z,11.80
2018-11-26T02:14:18.945Z,10.73
2018-11-26T02:19:23.053Z,11.60
2018-11-26T02:24:27.173Z,13.03
2018-11-26T02:29:31.411Z,12.03
2018-11-26T02:34:35.545Z,10.87
2018-11-26T02:39:39.730Z,11.90
2018-11-26T02:44:43.867Z,12.27
2018-11-26T02:49:48.019Z,12.20
2018-11-26T02:54:52.405Z,12.03
2018-11-26T02:59:56.287Z,11.70
2018-11-26T03:05:00.402Z,11.47
2018-11-26T03:10:05.031Z,11.93
2018-11-26T03:15:10.821Z,12.67
2018-11-26T03:20:15.012Z,13.00
2018-11-26T03:25:19.123Z,12.73
2018-11-26T03:30:23.489Z,13.10
2018-11-26T03:35:27.265Z,14.30
2018-11-26T03:40:31.387Z,13.43
2018-11-26T03:45:35.496Z,13.07
2018-11-26T03:50:39.684Z,13.67
2018-11-26T03:55:43.840Z,13.13
2018-11-26T04:00:51.934Z,11.93
2018-11-26T04:05:55.646Z,12.10
2018-11-26T04:10:59.727Z,11.70
2018-11-26T04:16:03.893Z,12.40
2018-11-26T04:21:08.053Z,11.67
2018-11-26T04:26:12.344Z,11.80
2018-11-26T04:31:16.474Z,10.23
2018-11-26T04:36:20.270Z,9.63
2018-11-26T04:41:24.342Z,9.67
2018-11-26T04:46:28.470Z,9.17
2018-11-26T04:51:32.628Z,8.73
2018-11-26T04:56:36.737Z,9.17
2018-11-26T05:01:40.896Z,8.77
2018-11-26T05:06:46.483Z,9.57
2018-11-26T05:11:50.844Z,9.63
2018-11-26T05:16:55.246Z,10.37
2018-11-26T05:21:59.761Z,10.23
2018-11-26T05:27:04.247Z,9.90
2018-11-26T05:32:08.763Z,9.90
2018-11-26T05:37:13.318Z,9.33
2018-11-26T05:42:17.920Z,9.60
2018-11-26T05:47:22.364Z,9.60
2018-11-26T05:52:26.420Z,9.83
2018-11-26T05:57:30.431Z,10.73
2018-11-26T06:02:34.829Z,10.83
2018-11-26T06:07:39.257Z,11.90
2018-11-26T06:12:43.675Z,11.33
2018-11-26T06:17:48.157Z,12.50
2018-11-26T06:22:52.664Z,11.60
2018-11-26T06:27:57.132Z,13.40
2018-11-26T06:33:01.148Z,13.07
2018-11-26T06:38:05.121Z,12.20
2018-11-26T06:43:09.103Z,13.77
2018-11-26T06:48:13.113Z,14.97
2018-11-26T06:53:17.493Z,14.43
2018-11-26T06:58:21.533Z,15.30
2018-11-26T07:03:25.447Z,15.80
2018-11-26T07:08:29.793Z,15.10
2018-11-26T07:13:33.814Z,15.67
2018-11-26T07:18:37.755Z,14.97
2018-11-26T07:23:41.683Z,15.47
2018-11-26T07:28:45.635Z,14.43
2018-11-26T07:33:49.560Z,15.37
2018-11-26T07:38:53.298Z,14.70
2018-11-26T07:43:57.002Z,15.13
2018-11-26T07:49:01.032Z,14.23
2018-11-26T07:54:04.870Z,14.87
2018-11-26T07:59:08.631Z,14.37
2018-11-26T08:04:12.678Z,15.43
2018-11-26T08:09:16.800Z,15.80
2018-11-26T08:14:20.630Z,15.73
2018-11-26T08:19:24.670Z,14.57
2018-11-26T08:24:28.774Z,15.70
2018-11-26T08:29:32.879Z,16.77
2018-11-26T08:34:37.019Z,15.37
2018-11-26T08:39:46.512Z,18.73
2018-11-26T08:45:00.830Z,22.67
2018-11-26T08:50:05.012Z,15.30
2018-11-26T08:55:08.821Z,14.87
2018-11-26T09:00:12.613Z,16.00
2018-11-26T09:05:24.279Z,15.13
2018-11-26T09:10:26.578Z,16.17
2018-11-26T09:15:30.274Z,16.03
2018-11-26T09:20:33.981Z,15.30
2018-11-26T09:25:38.027Z,16.03
2018-11-26T09:30:42.254Z,16.10
2018-11-26T09:35:46.392Z,15.97
2018-11-26T09:40:50.601Z,16.03
2018-11-26T09:45:54.731Z,16.13
2018-11-26T09:50:58.961Z,17.43
2018-11-26T09:56:03.139Z,16.20
2018-11-26T10:01:06.994Z,14.10
2018-11-26T10:06:11.024Z,17.07
2018-11-26T10:11:15.147Z,15.47
2018-11-26T10:16:19.278Z,15.63
2018-11-26T10:21:23.403Z,15.30
2018-11-26T10:26:27.370Z,14.63
2018-11-26T10:31:31.070Z,13.40
2018-11-26T10:36:35.122Z,13.97
2018-11-26T10:41:38.966Z,12.13
2018-11-26T10:46:43.069Z,14.53
2018-11-26T10:51:47.184Z,13.33
2018-11-26T10:56:51.330Z,13.90
2018-11-26T11:02:00.462Z,13.43
2018-11-26T11:07:04.501Z,13.10
2018-11-26T11:12:08.341Z,13.97
2018-11-26T11:17:12.362Z,14.77
2018-11-26T11:22:16.514Z,15.20
2018-11-26T11:27:20.314Z,15.87
2018-11-26T11:32:24.372Z,14.57
2018-11-26T11:37:28.475Z,16.00
2018-11-26T11:42:32.593Z,17.23
2018-11-26T11:47:36.424Z,17.77
2018-11-26T11:52:40.163Z,16.53
2018-11-26T11:57:43.939Z,15.67
2018-11-26T12:02:47.688Z,16.20
2018-11-26T12:07:51.817Z,17.33
2018-11-26T12:12:55.941Z,15.23
2018-11-26T12:17:59.766Z,16.27
2018-11-26T12:23:03.468Z,17.50
2018-11-26T12:28:07.511Z,18.60
2018-11-26T12:33:11.643Z,17.63
2018-11-26T12:38:15.778Z,17.20
2018-11-26T12:43:19.892Z,17.90
2018-11-26T12:48:24.036Z,18.37
2018-11-26T12:53:28.148Z,17.90
2018-11-26T12:58:32.276Z,17.77
2018-11-26T13:03:36.376Z,18.87
2018-11-26T13:08:40.237Z,18.37
2018-11-26T13:13:44.263Z,18.53
2018-11-26T13:18:48.417Z,19.13
2018-11-26T13:23:52.554Z,19.73
2018-11-26T13:28:56.670Z,18.60
2018-11-26T13:34:00.836Z,19.17
2018-11-26T13:39:08.481Z,19.07
2018-11-26T13:44:12.646Z,19.13
2018-11-26T13:49:16.772Z,19.53
2018-11-26T13:54:20.882Z,19.63
2018-11-26T13:59:24.995Z,19.83
2018-11-26T14:04:29.150Z,19.67
2018-11-26T14:09:33.256Z,20.07
2018-11-26T14:14:37.364Z,19.30
2018-11-26T14:19:41.146Z,18.43
2018-11-26T14:24:45.192Z,18.77
2018-11-26T14:29:49.320Z,19.30
2018-11-26T14:34:53.436Z,18.70
2018-11-26T14:39:57.541Z,18.27
2018-11-26T14:45:01.341Z,19.30
2018-11-26T14:50:06.451Z,16.77
2018-11-26T14:55:14.915Z,15.10
2018-11-26T15:00:19.529Z,16.00
2018-11-26T15:05:23.267Z,15.93
2018-11-26T15:10:27.007Z,16.20
2018-11-26T15:15:30.739Z,15.87
2018-11-26T15:20:34.913Z,16.33
2018-11-26T15:25:38.753Z,16.10
2018-11-26T15:30:42.468Z,16.37
2018-11-26T15:35:47.042Z,17.47
2018-11-26T15:40:51.533Z,16.53
2018-11-26T15:45:55.686Z,15.03
2018-11-26T15:50:59.471Z,15.00
2018-11-26T15:56:03.200Z,17.33
2018-11-26T16:01:07.028Z,14.33
2018-11-26T16:06:10.971Z,15.10
2018-11-26T16:11:14.740Z,15.67
2018-11-26T16:16:18.510Z,15.77
2018-11-26T16:21:22.308Z,16.07
2018-11-26T16:26:26.023Z,17.70
2018-11-26T16:31:29.821Z,18.60
2018-11-26T16:36:33.558Z,17.13
2018-11-26T16:41:37.256Z,17.47
2018-11-26T16:46:41.341Z,18.40
2018-11-26T16:51:45.526Z,18.00
2018-11-26T16:56:49.645Z,17.53
2018-11-26T17:01:53.799Z,18.73
2018-11-26T17:06:57.604Z,18.33
2018-11-26T17:12:01.303Z,18.97
2018-11-26T17:17:05.105Z,20.03
2018-11-26T17:22:08.831Z,18.23
2018-11-26T17:27:12.683Z,17.40
2018-11-26T17:32:16.280Z,16.03
2018-11-26T17:37:20.088Z,15.10
2018-11-26T17:42:23.828Z,15.50
2018-11-26T17:47:27.688Z,15.67
2018-11-26T17:52:32.564Z,15.33
2018-11-26T17:57:37.395Z,16.50
2018-11-26T18:02:41.850Z,14.10
2018-11-26T18:07:46.219Z,14.43
2018-11-26T18:12:50.193Z,14.67
2018-11-26T18:17:54.370Z,15.13
2018-11-26T18:22:58.686Z,14.23
2018-11-26T18:28:05.656Z,14.87
2018-11-26T18:33:09.498Z,16.37
2018-11-26T18:38:19.852Z,15.70
2018-11-26T18:43:24.060Z,15.67
2018-11-26T18:48:28.281Z,26.20
2018-11-26T18:53:32.774Z,18.63
2018-11-26T18:58:36.636Z,17.77
2018-11-26T19:03:40.441Z,18.37
2018-11-26T19:08:44.167Z,18.00
2018-11-26T19:13:58.158Z,18.97
2018-11-26T19:19:01.978Z,18.40
2018-11-26T19:24:05.896Z,16.63
2018-11-26T19:29:10.171Z,16.10
2018-11-26T19:34:14.346Z,17.77
2018-11-26T19:39:18.288Z,18.20
2018-11-26T19:44:22.099Z,17.57
2018-11-26T19:49:25.859Z,17.30
2018-11-26T19:54:29.611Z,16.43
2018-11-26T19:59:33.363Z,16.27
2018-11-26T20:04:42.439Z,17.70
2018-11-26T20:09:46.226Z,18.00
2018-11-26T20:14:50.110Z,17.87
2018-11-26T20:19:53.797Z,17.27
2018-11-26T20:24:57.577Z,16.30
2018-11-26T20:30:01.303Z,17.30
2018-11-26T20:35:06.958Z,18.40
2018-11-26T20:40:11.649Z,18.20
2018-11-26T20:45:15.944Z,16.30
2018-11-26T20:50:21.038Z,17.73
2018-11-26T20:55:25.253Z,18.90
2018-11-26T21:00:29.363Z,17.50
2018-11-26T21:05:33.157Z,17.97
2018-11-26T21:10:37.374Z,17.63
2018-11-26T21:15:41.554Z,18.10
2018-11-26T21:20:47.387Z,18.23
2018-11-26T21:25:51.959Z,17.50
2018-11-26T21:30:56.744Z,15.97
2018-11-26T21:36:00.953Z,19.73
2018-11-26T21:41:05.545Z,19.10
2018-11-26T21:46:10.491Z,18.03
2018-11-26T21:51:15.109Z,17.10
2018-11-26T21:56:19.059Z,20.67
2018-11-26T22:01:22.888Z,18.77
2018-11-26T22:06:26.797Z,17.90
2018-11-26T22:11:30.691Z,19.03
2018-11-26T22:16:34.398Z,17.93
2018-11-26T22:21:38.142Z,17.80
2018-11-26T22:26:41.977Z,18.87
2018-11-26T22:31:45.858Z,19.00
2018-11-26T22:36:49.587Z,19.57
2018-11-26T22:41:59.591Z,19.03
2018-11-26T22:47:03.904Z,18.43
2018-11-26T22:52:08.760Z,18.10
2018-11-26T22:57:12.629Z,18.07
2018-11-26T23:02:17.060Z,18.30
2018-11-26T23:07:20.819Z,18.70
2018-11-26T23:12:25.777Z,19.07
2018-11-26T23:17:29.716Z,20.90
2018-11-26T23:22:33.859Z,19.87
2018-11-26T23:27:38.052Z,18.47
2018-11-26T23:32:42.249Z,17.47
2018-11-26T23:37:46.448Z,15.80
2018-11-26T23:42:50.291Z,17.07
2018-11-26T23:47:54.714Z,17.87
2018-11-26T23:52:58.527Z,17.10
2018-11-26T23:58:02.631Z,16.53
